CYNL

METAR CYNL 251900Z AUTO 00000KT 9SM FEW056 26/13 A2981 RMK AO1 SLP077
METAR
LOCATION
CYNL
DATE - TIME
251900Z
WIND
CALM WIND
VISIBILITY
9SM
RUNWAY VISUAL RANGE
NOT REPORTED
WEATHER
CLOUDINESS
FEW056
TEMP / DEWPOINT
26 ºC / 13 ºC
ALTIMETER
29.81 in. Hg
RECENT WEATHER
NOT REPORTED
WIND SHEAR
NOT REPORTED
REMARKS
RMK AO1 SLP077
SEA LEVEL PRESSURE: hPa

CYNL

METAR CYNL 251800Z AUTO VRB03KT 9SM CLR 26/13 A2982 RMK AO1 SLP080
METAR
LOCATION
CYNL
DATE - TIME
251800Z
WIND
VRB TRUE @ 3 KNOTS
VISIBILITY
9SM
RUNWAY VISUAL RANGE
NOT REPORTED
WEATHER
CLOUDINESS
CLR
TEMP / DEWPOINT
26 ºC / 13 ºC
ALTIMETER
29.82 in. Hg
RECENT WEATHER
NOT REPORTED
WIND SHEAR
NOT REPORTED
REMARKS
RMK AO1 SLP080
SEA LEVEL PRESSURE: hPa

CYNL

METAR CYNL 251700Z AUTO 04005KT 9SM CLR 25/14 A2983 RMK AO1 SLP084
METAR
LOCATION
CYNL
DATE - TIME
251700Z
WIND
040 TRUE @ 5 KNOTS
VISIBILITY
9SM
RUNWAY VISUAL RANGE
NOT REPORTED
WEATHER
CLOUDINESS
CLR
TEMP / DEWPOINT
25 ºC / 14 ºC
ALTIMETER
29.83 in. Hg
RECENT WEATHER
NOT REPORTED
WIND SHEAR
NOT REPORTED
REMARKS
RMK AO1 SLP084
SEA LEVEL PRESSURE: hPa

Your time UTC time
 
 
Weather data provided by AXYS Technologies Inc., www.axystechnologies.com
 
Station History